Time;durP1;ratioP1;P1;durP2;ratioP2;P2;SDS_P1;SDS_P2;PMS_P1;PMS_P2;Temp;Humidity;BMP_temperature;BMP_pressure;BME280_temperature;BME280_humidity;BME280_pressure;Samples;Min_cycle;Max_cycle;Signal;HPM_P1;HPM_P2
2022/06/14 00:03:16;;;;;;;2.25;1.75;;;15.70;66.00;;;;;;5010079;28;20040;-66
2022/06/14 00:05:43;;;;;;;4.38;1.90;;;15.70;65.70;;;;;;5012716;28;20034;-66
2022/06/14 00:08:09;;;;;;;2.20;2.00;;;15.70;65.80;;;;;;5012195;28;20049;-66
2022/06/14 00:10:35;;;;;;;2.70;1.75;;;15.70;66.00;;;;;;5009169;28;20046;-66
2022/06/14 00:13:01;;;;;;;4.18;2.10;;;15.70;65.90;;;;;;5013930;28;20037;-66
2022/06/14 00:15:27;;;;;;;4.72;2.17;;;15.70;65.90;;;;;;5014073;28;20048;-66
2022/06/14 00:17:53;;;;;;;3.58;1.90;;;15.60;66.00;;;;;;5016109;28;20061;-66
2022/06/14 00:20:18;;;;;;;1.75;1.65;;;15.50;66.00;;;;;;5017165;28;20524;-66
2022/06/14 00:22:44;;;;;;;2.92;1.88;;;15.50;66.20;;;;;;5016830;28;20041;-65
2022/06/14 00:25:25;;;;;;;3.05;1.90;;;15.50;66.60;;;;;;5011990;28;20622;-66
2022/06/14 00:27:51;;;;;;;3.92;1.80;;;15.50;67.50;;;;;;5014993;28;20393;-65
2022/06/14 00:30:18;;;;;;;1.90;1.80;;;15.50;66.60;;;;;;5013968;28;20045;-66
2022/06/14 00:32:43;;;;;;;3.15;2.05;;;15.40;66.40;;;;;;5015534;28;20080;-65
2022/06/14 00:35:09;;;;;;;3.67;2.20;;;15.50;66.50;;;;;;5012141;28;20041;-66
2022/06/14 00:37:35;;;;;;;2.20;1.80;;;15.50;66.40;;;;;;5015235;28;20116;-66
2022/06/14 00:40:00;;;;;;;2.08;1.92;;;15.40;66.20;;;;;;5011768;28;21899;-66
2022/06/14 00:42:26;;;;;;;3.13;2.10;;;15.40;66.20;;;;;;5014001;28;20890;-66
2022/06/14 00:45:27;;;;;;;2.55;2.10;;;15.30;66.30;;;;;;5012867;28;20034;-66
2022/06/14 00:48:03;;;;;;;3.35;1.92;;;15.20;67.50;;;;;;5016891;28;20030;-66
2022/06/14 00:50:48;;;;;;;5.15;1.90;;;15.10;67.10;;;;;;5013880;28;20034;-66
2022/06/14 00:53:23;;;;;;;2.30;2.10;;;15.20;67.70;;;;;;5014843;28;20068;-65
2022/06/14 00:55:56;;;;;;;2.80;1.60;;;15.20;67.60;;;;;;5014453;28;20436;-66
2022/06/14 00:58:33;;;;;;;1.83;1.67;;;15.30;67.30;;;;;;5014454;28;20080;-66
2022/06/14 01:01:07;;;;;;;2.30;1.80;;;15.20;67.40;;;;;;5019148;28;20103;-65
2022/06/14 01:03:54;;;;;;;4.32;1.80;;;15.30;66.70;;;;;;5012467;28;20026;-66
2022/06/14 01:06:36;;;;;;;2.30;1.85;;;15.30;67.60;;;;;;5012258;28;20038;-66
2022/06/14 01:09:09;;;;;;;2.13;1.92;;;15.30;66.90;;;;;;5014077;28;20037;-66
2022/06/14 01:11:47;;;;;;;4.05;1.73;;;15.30;67.20;;;;;;5013634;28;20180;-66
2022/06/14 01:14:17;;;;;;;3.17;1.70;;;15.20;67.10;;;;;;5011839;28;20526;-66
2022/06/14 01:16:44;;;;;;;2.38;1.85;;;15.20;66.90;;;;;;5015011;28;20589;-65
2022/06/14 01:19:23;;;;;;;4.13;1.90;;;15.20;66.70;;;;;;5013497;28;20211;-66
2022/06/14 01:21:59;;;;;;;4.13;2.00;;;15.20;67.30;;;;;;5011862;28;20029;-65
2022/06/14 01:24:25;;;;;;;2.88;2.05;;;15.10;66.50;;;;;;5013286;28;20034;-65
2022/06/14 01:26:50;;;;;;;2.20;1.95;;;15.10;66.50;;;;;;5012744;28;20091;-66
2022/06/14 01:29:19;;;;;;;3.58;1.95;;;15.00;66.90;;;;;;5015769;28;20039;-66
2022/06/14 01:31:47;;;;;;;3.20;2.13;;;15.00;67.20;;;;;;5012287;28;20034;-66
2022/06/14 01:34:13;;;;;;;2.50;2.00;;;14.90;67.40;;;;;;5010718;28;20037;-65
2022/06/14 01:36:41;;;;;;;1.98;1.70;;;14.80;67.40;;;;;;5012953;28;20493;-66
2022/06/14 01:39:14;;;;;;;3.15;1.70;;;14.80;67.50;;;;;;5015075;28;20041;-66
2022/06/14 01:42:18;;;;;;;3.30;1.77;;;14.70;68.00;;;;;;5011618;28;20525;-66
2022/06/14 01:45:21;;;;;;;3.08;1.90;;;14.80;67.90;;;;;;4992990;28;20072;-68
2022/06/14 01:47:56;;;;;;;4.10;1.77;;;14.80;68.40;;;;;;5013505;28;20117;-67
2022/06/14 01:53:46;;;;;;;2.00;1.80;;;14.80;67.80;;;;;;5012835;28;20045;-68
2022/06/14 01:56:12;;;;;;;1.65;1.40;;;14.80;67.90;;;;;;5012129;28;20084;-67
2022/06/14 01:58:56;;;;;;;3.40;1.92;;;14.80;67.20;;;;;;5012606;28;20034;-68
2022/06/14 02:01:35;;;;;;;3.70;1.80;;;14.80;67.30;;;;;;5010357;28;20044;-67
2022/06/14 02:04:37;;;;;;;2.30;1.67;;;14.80;68.00;;;;;;5016955;28;20030;-67
2022/06/14 02:07:28;;;;;;;2.45;1.55;;;14.80;67.80;;;;;;5015376;28;20103;-68
2022/06/14 02:10:08;;;;;;;2.13;1.70;;;14.80;68.00;;;;;;5015621;28;20531;-68
2022/06/14 02:12:54;;;;;;;3.42;1.58;;;14.80;67.90;;;;;;5012127;28;20041;-68
2022/06/14 02:15:25;;;;;;;4.90;1.80;;;14.80;67.20;;;;;;5012051;28;20156;-68
2022/06/14 02:18:10;;;;;;;1.92;1.70;;;14.90;67.00;;;;;;5009949;28;20033;-67
2022/06/14 02:20:45;;;;;;;4.22;1.95;;;14.90;67.60;;;;;;5015114;28;20370;-68
2022/06/14 02:23:12;;;;;;;5.47;2.05;;;14.80;67.20;;;;;;5011781;28;20034;-68
2022/06/14 02:25:49;;;;;;;2.47;1.80;;;14.70;66.80;;;;;;5016723;28;20038;-68
2022/06/14 02:28:24;;;;;;;3.70;1.80;;;14.60;67.60;;;;;;5014608;28;20033;-68
2022/06/14 02:31:04;;;;;;;2.70;1.98;;;14.50;67.70;;;;;;5014362;28;20385;-67
2022/06/14 02:33:48;;;;;;;3.05;2.00;;;14.50;68.00;;;;;;5012453;28;20030;-68
2022/06/14 02:36:25;;;;;;;1.83;1.73;;;14.40;68.60;;;;;;5011163;28;20026;-68
2022/06/14 02:38:54;;;;;;;4.93;1.88;;;14.40;68.50;;;;;;5012088;28;20065;-67
2022/06/14 02:41:32;;;;;;;2.72;2.00;;;14.30;68.30;;;;;;5011472;28;20026;-68
2022/06/14 02:44:25;;;;;;;2.65;2.00;;;14.30;68.20;;;;;;5011582;28;20034;-67
2022/06/14 02:47:22;;;;;;;2.60;1.85;;;14.30;68.80;;;;;;5012563;28;20401;-67
2022/06/14 02:49:55;;;;;;;1.65;1.55;;;14.30;68.60;;;;;;5027965;28;20037;-67
2022/06/14 02:52:39;;;;;;;3.40;1.80;;;14.30;68.30;;;;;;5013542;28;20033;-68
2022/06/14 02:55:27;;;;;;;2.17;1.58;;;14.30;68.80;;;;;;5010307;28;20405;-68
2022/06/14 02:57:57;;;;;;;2.63;1.80;;;14.20;68.20;;;;;;5011511;28;20337;-68
2022/06/14 03:00:48;;;;;;;2.22;2.03;;;14.30;68.30;;;;;;5011771;28;20029;-68
2022/06/14 03:03:44;;;;;;;3.28;2.00;;;14.20;69.10;;;;;;5011063;28;20029;-67
2022/06/14 03:06:37;;;;;;;2.65;1.77;;;14.20;68.80;;;;;;5024100;28;20476;-67
2022/06/14 03:09:17;;;;;;;4.38;2.10;;;14.20;69.00;;;;;;5012466;28;20201;-68
2022/06/14 03:11:57;;;;;;;3.40;1.90;;;14.10;68.60;;;;;;5012986;28;20555;-68
2022/06/14 03:14:36;;;;;;;3.05;1.92;;;14.00;68.70;;;;;;5007139;28;20034;-68
2022/06/14 03:17:22;;;;;;;2.85;2.00;;;14.00;69.00;;;;;;5012011;28;20030;-68
2022/06/14 03:20:12;;;;;;;2.58;2.20;;;13.80;69.30;;;;;;5011585;28;20057;-67
2022/06/14 03:22:54;;;;;;;2.50;1.98;;;13.80;69.40;;;;;;5009126;28;20030;-68
2022/06/14 03:25:40;;;;;;;3.53;2.20;;;13.70;69.90;;;;;;5009696;28;20210;-67
2022/06/14 03:28:12;;;;;;;4.28;2.17;;;13.60;70.40;;;;;;5011343;28;20116;-67
2022/06/14 03:30:41;;;;;;;3.60;2.10;;;13.60;69.90;;;;;;5013248;28;20033;-67
2022/06/14 03:33:25;;;;;;;3.78;2.30;;;13.50;70.20;;;;;;5014136;28;20065;-67
2022/06/14 03:35:53;;;;;;;4.35;2.10;;;13.50;71.00;;;;;;5011671;28;20489;-67
2022/06/14 03:38:35;;;;;;;4.07;2.15;;;13.40;70.00;;;;;;5008824;28;20034;-67
2022/06/14 03:41:01;;;;;;;4.50;2.42;;;13.40;70.90;;;;;;5010072;28;20508;-67
2022/06/14 03:43:29;;;;;;;2.65;2.10;;;13.40;70.50;;;;;;5010476;28;20091;-67
2022/06/14 03:45:57;;;;;;;2.55;2.35;;;13.40;71.50;;;;;;5013420;28;20041;-67
2022/06/14 03:48:24;;;;;;;4.47;2.10;;;13.40;71.00;;;;;;5013805;28;20034;-67
2022/06/14 03:51:22;;;;;;;4.05;2.10;;;13.40;70.70;;;;;;5017285;28;20034;-68
2022/06/14 03:54:00;;;;;;;4.15;2.03;;;13.50;71.70;;;;;;5003825;28;20471;-68
2022/06/14 03:56:57;;;;;;;2.67;1.80;;;13.50;71.20;;;;;;5013463;28;20034;-67
2022/06/14 03:59:38;;;;;;;2.75;2.22;;;13.50;70.70;;;;;;5014876;28;20038;-68
2022/06/14 04:02:20;;;;;;;4.32;2.10;;;13.60;71.10;;;;;;5015793;28;20037;-67
2022/06/14 04:04:48;;;;;;;4.88;2.03;;;13.60;70.90;;;;;;5015717;28;20053;-67
2022/06/14 04:07:29;;;;;;;3.13;2.03;;;13.60;70.20;;;;;;5014966;28;20444;-67
2022/06/14 04:10:30;;;;;;;4.30;2.38;;;13.50;70.60;;;;;;5018050;28;20061;-67
2022/06/14 04:13:54;;;;;;;3.50;2.10;;;13.60;71.30;;;;;;5016224;28;20112;-67
2022/06/14 04:16:57;;;;;;;2.33;2.10;;;13.60;71.60;;;;;;4981341;28;20034;-67
2022/06/14 04:19:44;;;;;;;3.33;2.00;;;13.70;71.30;;;;;;5018885;28;20048;-67
2022/06/14 04:22:24;;;;;;;4.30;2.20;;;13.70;70.50;;;;;;5016074;28;20029;-67
2022/06/14 04:25:19;;;;;;;4.57;2.33;;;13.70;70.80;;;;;;5013563;28;20041;-67
2022/06/14 04:28:01;;;;;;;3.28;2.22;;;13.80;70.70;;;;;;5013686;28;20026;-67
2022/06/14 04:30:43;;;;;;;5.70;2.78;;;13.80;71.20;;;;;;5007405;28;20464;-66
2022/06/14 04:33:15;;;;;;;4.70;2.58;;;13.80;70.60;;;;;;5007240;28;20036;-68
2022/06/14 04:35:53;;;;;;;5.15;2.55;;;13.90;70.70;;;;;;5014992;28;20036;-68
2022/06/14 04:38:39;;;;;;;2.88;2.58;;;13.90;71.10;;;;;;5013383;28;20034;-68
2022/06/14 04:41:23;;;;;;;6.47;2.97;;;13.80;71.10;;;;;;5012088;28;20033;-68
2022/06/14 04:44:09;;;;;;;2.90;2.35;;;13.80;71.30;;;;;;5011268;28;20037;-67
2022/06/14 04:46:46;;;;;;;3.28;2.72;;;13.80;71.40;;;;;;5010989;28;20644;-68
2022/06/14 04:49:18;;;;;;;4.88;2.67;;;13.80;71.30;;;;;;5010803;28;20037;-68
2022/06/14 04:52:01;;;;;;;3.08;2.50;;;13.70;71.20;;;;;;5015208;28;20037;-68
2022/06/14 04:54:36;;;;;;;4.13;2.88;;;13.70;71.70;;;;;;5012444;28;20401;-68
2022/06/14 04:57:33;;;;;;;4.47;3.10;;;13.70;71.80;;;;;;5014431;28;20033;-67
2022/06/14 05:00:06;;;;;;;4.22;3.30;;;13.80;72.60;;;;;;5025990;28;20034;-68
2022/06/14 05:02:34;;;;;;;4.30;3.25;;;13.70;72.30;;;;;;5012221;28;20040;-68
2022/06/14 05:05:05;;;;;;;6.00;3.13;;;13.70;72.00;;;;;;5011723;28;20034;-67
2022/06/14 05:07:39;;;;;;;4.20;3.08;;;13.80;73.20;;;;;;5008252;28;20136;-68
2022/06/14 05:10:17;;;;;;;6.20;4.00;;;13.80;73.00;;;;;;5010462;28;20333;-68
2022/06/14 05:12:55;;;;;;;6.75;3.90;;;13.90;73.10;;;;;;5009250;28;20125;-68
2022/06/14 05:15:46;;;;;;;5.00;3.42;;;13.90;73.20;;;;;;5010371;28;20045;-68
2022/06/14 05:18:27;;;;;;;4.43;3.63;;;14.00;74.70;;;;;;5011486;28;20084;-68
2022/06/14 05:20:55;;;;;;;4.75;3.10;;;14.10;73.50;;;;;;5006037;28;20117;-68
2022/06/14 05:23:30;;;;;;;6.90;3.78;;;14.20;73.00;;;;;;5010871;28;20626;-68
2022/06/14 05:26:19;;;;;;;4.78;4.05;;;14.30;73.70;;;;;;5008306;28;20030;-68
2022/06/14 05:29:08;;;;;;;6.35;3.88;;;14.40;74.40;;;;;;5009635;28;20049;-68
2022/06/14 05:31:52;;;;;;;7.38;4.05;;;14.50;73.80;;;;;;5009289;28;20049;-68
2022/06/14 05:34:28;;;;;;;7.22;4.32;;;14.70;73.20;;;;;;5004428;28;20746;-68
2022/06/14 05:37:12;;;;;;;6.47;3.63;;;14.80;72.60;;;;;;5022497;28;20049;-68
2022/06/14 05:39:46;;;;;;;5.10;4.18;;;14.90;71.90;;;;;;5009990;28;20117;-68
2022/06/14 05:42:21;;;;;;;6.90;4.38;;;15.10;72.00;;;;;;5005661;28;20066;-68
2022/06/14 05:44:48;;;;;;;;;;;15.20;71.90;;;;;;5009177;28;20479;-66
2022/06/14 05:47:17;;;;;;;7.50;3.95;;;15.30;71.60;;;;;;5008352;28;19924;-66
2022/06/14 05:49:54;;;;;;;5.78;4.10;;;15.40;70.70;;;;;;5006780;28;20026;-66
2022/06/14 05:52:26;;;;;;;8.07;4.50;;;15.50;70.70;;;;;;5007771;28;20033;-66
2022/06/14 05:55:00;;;;;;;8.57;4.28;;;15.70;70.60;;;;;;5004958;28;20046;-66
2022/06/14 05:57:49;;;;;;;5.88;3.92;;;15.70;70.70;;;;;;5005160;28;20029;-66
2022/06/14 06:00:17;;;;;;;7.07;4.28;;;15.90;71.70;;;;;;5013585;28;20858;-67
2022/06/14 06:03:12;;;;;;;7.68;4.20;;;15.90;70.50;;;;;;5011558;28;20100;-66
2022/06/14 06:05:43;;;;;;;7.13;4.20;;;16.00;69.70;;;;;;5012897;28;20037;-66
2022/06/14 06:08:24;;;;;;;5.38;4.00;;;16.10;69.60;;;;;;5013738;28;20067;-66
2022/06/14 06:10:55;;;;;;;5.72;4.03;;;16.20;69.90;;;;;;5011527;28;20041;-66
2022/06/14 06:13:25;;;;;;;6.07;3.92;;;16.20;69.70;;;;;;5014168;28;20069;-66
2022/06/14 06:16:16;;;;;;;8.93;3.90;;;16.30;69.40;;;;;;5012917;28;20121;-66
2022/06/14 06:19:01;;;;;;;5.82;3.80;;;16.40;68.90;;;;;;5012539;28;20033;-66
2022/06/14 06:21:49;;;;;;;8.32;4.60;;;16.50;69.10;;;;;;5012320;28;20056;-66
2022/06/14 06:24:17;;;;;;;6.53;4.00;;;16.60;68.60;;;;;;5012610;28;20045;-66
2022/06/14 06:26:49;;;;;;;6.72;4.03;;;16.60;68.50;;;;;;5012951;28;20041;-66
2022/06/14 06:29:23;;;;;;;6.95;3.97;;;16.70;69.00;;;;;;5014022;28;20083;-66
2022/06/14 06:31:48;;;;;;;6.25;4.20;;;16.70;68.80;;;;;;5012996;28;20038;-67
2022/06/14 06:34:17;;;;;;;5.47;4.47;;;16.70;68.70;;;;;;5014420;28;20041;-67
2022/06/14 06:36:54;;;;;;;6.43;3.70;;;16.80;68.90;;;;;;5013775;28;20453;-66
2022/06/14 06:39:46;;;;;;;6.78;4.10;;;16.90;68.50;;;;;;5017112;28;20060;-66
2022/06/14 06:42:49;;;;;;;6.57;3.95;;;16.90;69.00;;;;;;5012869;28;20124;-67
2022/06/14 06:45:22;;;;;;;5.75;4.20;;;17.00;68.60;;;;;;5014079;28;20544;-66
2022/06/14 06:48:11;;;;;;;6.07;3.80;;;17.10;67.80;;;;;;5013042;28;20034;-66
2022/06/14 06:50:51;;;;;;;4.45;3.85;;;17.20;68.30;;;;;;5013415;28;20030;-66
2022/06/14 06:53:20;;;;;;;5.80;4.07;;;17.30;68.30;;;;;;5010263;28;20378;-66
2022/06/14 06:56:01;;;;;;;9.52;3.50;;;17.40;67.80;;;;;;5014134;28;20496;-66
2022/06/14 06:58:35;;;;;;;10.13;3.83;;;17.50;67.30;;;;;;5008259;28;20063;-66
2022/06/14 07:01:06;;;;;;;6.15;3.53;;;17.60;66.60;;;;;;5010240;28;20542;-65
2022/06/14 07:03:50;;;;;;;5.55;3.72;;;17.70;66.70;;;;;;5011389;28;20453;-66
2022/06/14 07:06:24;;;;;;;4.60;3.33;;;17.90;65.90;;;;;;5012804;28;20045;-66
2022/06/14 07:08:57;;;;;;;5.15;3.40;;;17.90;65.70;;;;;;5012540;28;20115;-66
2022/06/14 07:11:29;;;;;;;5.43;3.63;;;18.10;65.90;;;;;;5011540;28;20128;-66
2022/06/14 07:14:01;;;;;;;4.85;3.63;;;18.10;66.60;;;;;;5013055;28;20520;-66
2022/06/14 07:16:39;;;;;;;5.60;3.95;;;18.20;66.00;;;;;;5014692;28;20583;-66
2022/06/14 07:20:12;;;;;;;8.73;4.22;;;18.40;65.40;;;;;;5010876;28;20045;-65
2022/06/14 07:22:47;;;;;;;6.22;3.63;;;18.50;64.50;;;;;;4957236;28;20031;-64
2022/06/14 07:25:26;;;;;;;6.57;3.30;;;18.60;65.10;;;;;;4954345;28;20047;-65
2022/06/14 07:28:33;;;;;;;6.68;3.33;;;18.70;64.30;;;;;;4992448;28;20038;-66
2022/06/14 07:31:19;;;;;;;4.72;3.33;;;18.80;64.10;;;;;;5032163;28;20408;-66
2022/06/14 07:33:45;;;;;;;6.07;3.00;;;19.00;64.50;;;;;;5020493;28;20171;-66
2022/06/14 07:36:34;;;;;;;5.57;3.17;;;19.10;62.90;;;;;;5024361;28;20405;-66
2022/06/14 07:39:21;;;;;;;3.45;2.50;;;19.20;62.70;;;;;;5016338;28;20037;-66
2022/06/14 07:42:04;;;;;;;5.55;2.88;;;19.30;62.60;;;;;;5017345;28;20029;-66
2022/06/14 07:44:36;;;;;;;6.55;3.33;;;19.40;61.70;;;;;;5014981;28;20030;-66
2022/06/14 07:47:20;;;;;;;4.45;2.95;;;19.50;61.00;;;;;;5013686;28;20030;-66
2022/06/14 07:49:52;;;;;;;7.35;2.67;;;19.60;60.00;;;;;;5017328;28;20513;-66
2022/06/14 07:52:30;;;;;;;4.68;2.95;;;19.70;59.70;;;;;;5015106;28;20060;-66
2022/06/14 07:55:07;;;;;;;7.95;2.60;;;19.80;59.60;;;;;;5015377;28;20044;-66
2022/06/14 07:57:38;;;;;;;6.68;2.63;;;19.90;59.60;;;;;;5014982;28;20034;-66
2022/06/14 08:03:04;;;;;;;4.30;2.63;;;20.10;58.90;;;;;;5010750;28;20045;-66
2022/06/14 08:05:35;;;;;;;4.00;2.38;;;20.30;59.60;;;;;;5018242;28;20087;-66
2022/06/14 08:08:04;;;;;;;4.95;2.47;;;20.40;60.00;;;;;;5018658;28;20033;-66
2022/06/14 08:10:35;;;;;;;3.80;2.40;;;20.60;59.70;;;;;;5012167;28;20072;-66
2022/06/14 08:13:10;;;;;;;5.30;2.40;;;20.70;59.30;;;;;;5015586;28;20045;-66
2022/06/14 08:15:39;;;;;;;5.10;2.30;;;20.90;58.40;;;;;;5013745;28;20026;-66
2022/06/14 08:18:20;;;;;;;4.22;1.88;;;21.00;57.40;;;;;;5017535;28;20029;-66
2022/06/14 08:21:01;;;;;;;4.85;2.03;;;21.10;57.50;;;;;;5015393;28;20083;-66
2022/06/14 08:23:35;;;;;;;3.20;2.13;;;21.30;57.30;;;;;;5017068;28;20040;-66
2022/06/14 08:26:11;;;;;;;3.90;2.00;;;21.40;56.10;;;;;;5016110;28;20091;-66
2022/06/14 08:28:47;;;;;;;3.20;1.63;;;21.50;56.10;;;;;;5013973;28;20041;-66
2022/06/14 08:31:50;;;;;;;3.00;1.38;;;21.70;54.70;;;;;;5010794;28;20037;-66
2022/06/14 08:34:25;;;;;;;3.95;1.60;;;21.80;54.60;;;;;;5007462;28;20037;-66
2022/06/14 08:37:09;;;;;;;3.30;1.77;;;21.90;54.30;;;;;;5014640;28;20033;-66
2022/06/14 08:39:42;;;;;;;5.35;1.95;;;22.00;53.80;;;;;;5014671;28;20046;-66
2022/06/14 08:42:32;;;;;;;3.45;2.00;;;22.10;53.50;;;;;;5015225;28;20040;-66
2022/06/14 08:45:42;;;;;;;2.75;1.65;;;22.20;52.80;;;;;;5015019;28;20585;-66
2022/06/14 08:48:55;;;;;;;3.53;2.08;;;22.30;53.50;;;;;;5010117;28;20044;-66
2022/06/14 08:51:30;;;;;;;3.47;1.75;;;22.50;52.50;;;;;;5017320;28;20042;-66
2022/06/14 08:53:58;;;;;;;3.45;1.60;;;22.60;53.10;;;;;;5000738;28;20037;-65
2022/06/14 08:56:32;;;;;;;3.33;1.48;;;22.70;53.20;;;;;;5016800;28;20045;-66
2022/06/14 08:59:31;;;;;;;2.55;1.63;;;22.80;52.60;;;;;;5013659;28;20050;-67
2022/06/14 09:02:15;;;;;;;3.95;2.03;;;22.90;50.60;;;;;;5015347;28;20128;-66
2022/06/14 09:05:12;;;;;;;10.97;2.50;;;23.10;50.80;;;;;;5013049;28;20033;-67
2022/06/14 09:08:09;;;;;;;4.15;1.63;;;23.20;51.50;;;;;;5013192;28;20033;-66
2022/06/14 09:11:02;;;;;;;3.15;1.80;;;23.30;51.80;;;;;;5012058;28;20029;-66
2022/06/14 09:13:53;;;;;;;3.88;1.60;;;23.40;48.00;;;;;;5009838;28;20504;-66
2022/06/14 09:16:24;;;;;;;4.45;1.50;;;23.40;49.60;;;;;;5013436;28;20040;-66
2022/06/14 09:19:12;;;;;;;3.60;1.55;;;23.40;50.50;;;;;;5013283;28;20033;-67
2022/06/14 09:21:47;;;;;;;3.08;1.67;;;23.50;47.70;;;;;;5015233;28;20032;-66
2022/06/14 09:24:17;;;;;;;2.25;1.20;;;23.50;49.40;;;;;;5015030;28;20060;-66
2022/06/14 09:27:01;;;;;;;2.03;1.30;;;23.60;50.00;;;;;;5016141;28;20513;-66
2022/06/14 09:29:40;;;;;;;2.58;1.52;;;23.60;48.90;;;;;;5015827;28;20033;-66
2022/06/14 09:32:33;;;;;;;4.72;1.75;;;23.70;47.70;;;;;;5013431;28;20057;-66
2022/06/14 09:35:23;;;;;;;3.67;1.30;;;23.80;46.90;;;;;;5014482;28;20037;-67
2022/06/14 09:38:22;;;;;;;2.10;1.25;;;23.90;45.20;;;;;;5015393;28;20169;-66
2022/06/14 09:41:05;;;;;;;1.98;1.15;;;23.90;45.30;;;;;;5013206;28;20042;-66
2022/06/14 09:43:39;;;;;;;3.22;1.40;;;23.90;46.30;;;;;;5015303;28;20041;-67
2022/06/14 09:46:26;;;;;;;3.20;1.40;;;24.00;48.00;;;;;;5014937;28;20088;-66
2022/06/14 09:49:10;;;;;;;1.77;1.55;;;24.10;46.00;;;;;;5015652;28;20065;-66
2022/06/14 09:51:54;;;;;;;4.15;1.48;;;24.10;45.10;;;;;;5012712;28;20097;-66
2022/06/14 09:55:00;;;;;;;3.00;1.40;;;24.20;45.90;;;;;;5014571;28;20041;-66
2022/06/14 09:57:32;;;;;;;;;;;24.20;46.50;;;;;;5013693;28;20150;-66
2022/06/14 10:00:23;;;;;;;3.30;1.50;;;24.30;47.80;;;;;;5009907;28;19921;-67
2022/06/14 10:03:11;;;;;;;2.33;1.35;;;24.40;45.60;;;;;;5007973;28;20054;-67
2022/06/14 10:05:48;;;;;;;7.00;1.40;;;24.40;46.50;;;;;;5013963;28;20322;-66
2022/06/14 10:08:42;;;;;;;2.30;1.15;;;24.50;44.80;;;;;;5013903;28;20034;-66
2022/06/14 10:11:13;;;;;;;2.08;1.33;;;24.50;45.40;;;;;;5010634;28;20038;-66
2022/06/14 10:13:44;;;;;;;3.00;1.85;;;24.60;46.60;;;;;;5013563;28;20295;-65
2022/06/14 10:16:30;;;;;;;1.73;1.33;;;24.70;45.70;;;;;;5013166;28;20069;-66
2022/06/14 10:19:31;;;;;;;1.88;1.40;;;24.70;45.50;;;;;;5010250;28;20409;-66
2022/06/14 10:22:14;;;;;;;2.45;1.38;;;24.80;45.10;;;;;;5012010;28;20037;-66
2022/06/14 10:25:16;;;;;;;3.42;1.40;;;24.90;45.20;;;;;;5012354;28;20030;-66
2022/06/14 10:28:12;;;;;;;5.25;1.85;;;25.00;44.60;;;;;;5014103;28;20113;-67
2022/06/14 10:30:52;;;;;;;2.47;1.70;;;25.10;43.20;;;;;;5017302;28;20044;-65
2022/06/14 10:33:34;;;;;;;2.10;1.45;;;25.10;43.10;;;;;;5016207;28;20429;-66
2022/06/14 10:36:19;;;;;;;3.15;1.42;;;25.10;44.10;;;;;;5010472;28;20872;-66
2022/06/14 10:38:56;;;;;;;2.58;1.33;;;25.20;44.40;;;;;;5009428;28;20050;-66
2022/06/14 10:41:44;;;;;;;1.52;1.40;;;25.20;45.00;;;;;;5010271;28;20033;-66
2022/06/14 10:44:09;;;;;;;2.58;1.42;;;25.30;43.60;;;;;;5010820;28;20042;-66
2022/06/14 10:46:45;;;;;;;2.10;1.20;;;25.40;44.60;;;;;;5011910;28;20042;-66
2022/06/14 10:49:36;;;;;;;2.08;1.15;;;25.40;43.50;;;;;;5013598;28;20537;-67
2022/06/14 10:52:23;;;;;;;1.83;1.25;;;25.50;43.90;;;;;;5013330;28;20033;-67
2022/06/14 10:55:15;;;;;;;2.05;1.45;;;25.60;43.40;;;;;;5011695;28;20529;-66
2022/06/14 10:57:53;;;;;;;1.42;1.20;;;25.80;44.00;;;;;;5012163;28;20048;-66
2022/06/14 11:00:40;;;;;;;5.10;1.90;;;25.80;43.60;;;;;;5012371;28;20038;-66
2022/06/14 11:03:14;;;;;;;3.70;1.50;;;25.90;43.40;;;;;;5013600;28;20152;-65
2022/06/14 11:06:26;;;;;;;1.92;1.50;;;26.00;42.30;;;;;;5017927;28;20117;-67
2022/06/14 11:08:58;;;;;;;3.28;1.50;;;26.00;41.70;;;;;;5011691;28;20041;-67
2022/06/14 11:11:47;;;;;;;1.80;1.17;;;25.90;42.80;;;;;;5010036;28;20501;-66
2022/06/14 11:14:20;;;;;;;1.65;1.40;;;25.90;42.90;;;;;;5013792;28;20128;-66
2022/06/14 11:17:02;;;;;;;1.38;1.20;;;25.90;43.10;;;;;;5011865;28;20053;-67
2022/06/14 11:22:05;;;;;;;2.47;1.50;;;26.10;43.40;;;;;;5008184;28;20413;-66
2022/06/14 11:24:53;;;;;;;2.67;1.50;;;26.10;41.70;;;;;;5012044;28;20038;-67
2022/06/14 11:27:22;;;;;;;2.50;1.60;;;26.10;40.70;;;;;;5028841;28;20038;-66
2022/06/14 11:30:02;;;;;;;2.60;1.73;;;26.10;41.90;;;;;;5013939;28;20068;-66
2022/06/14 11:32:42;;;;;;;3.72;1.42;;;26.00;41.10;;;;;;5012600;28;20461;-66
2022/06/14 11:35:28;;;;;;;3.30;1.30;;;25.90;42.20;;;;;;5011747;28;20045;-66
2022/06/14 11:38:02;;;;;;;1.65;1.30;;;25.90;41.80;;;;;;5012578;28;20041;-66
2022/06/14 11:40:33;;;;;;;2.17;1.38;;;25.90;42.60;;;;;;5013167;28;20172;-65
2022/06/14 11:43:28;;;;;;;2.55;1.45;;;26.00;42.30;;;;;;5012427;28;20045;-66
2022/06/14 11:46:27;;;;;;;3.58;1.10;;;26.10;42.40;;;;;;5013063;28;20112;-66
2022/06/14 11:49:00;;;;;;;2.15;1.40;;;26.20;42.40;;;;;;5012642;28;20034;-66
2022/06/14 11:51:31;;;;;;;7.50;1.45;;;26.20;42.30;;;;;;5014095;28;20704;-66
2022/06/14 11:54:19;;;;;;;4.00;1.20;;;26.30;41.80;;;;;;5008139;28;20140;-67
2022/06/14 11:57:06;;;;;;;2.28;1.23;;;26.30;41.00;;;;;;5011841;28;20400;-66
2022/06/14 11:59:34;;;;;;;2.85;1.25;;;26.30;40.80;;;;;;5011238;28;20026;-66
2022/06/14 12:02:28;;;;;;;3.88;1.20;;;26.40;40.00;;;;;;5010305;28;20026;-67
2022/06/14 12:05:06;;;;;;;2.33;1.13;;;26.40;39.60;;;;;;5012497;28;20026;-66
2022/06/14 12:07:47;;;;;;;3.13;1.38;;;26.50;39.90;;;;;;5015311;28;20037;-66
2022/06/14 12:10:55;;;;;;;3.35;1.17;;;26.50;39.50;;;;;;5016577;28;20068;-66
2022/06/14 12:13:30;;;;;;;2.75;1.20;;;26.60;39.60;;;;;;4969939;28;20045;-66
2022/06/14 12:16:01;;;;;;;2.25;1.17;;;26.60;40.50;;;;;;5011574;28;20040;-67
2022/06/14 12:18:30;;;;;;;1.77;1.00;;;26.60;40.60;;;;;;5014948;28;20026;-66
2022/06/14 12:21:30;;;;;;;3.55;1.20;;;26.60;39.60;;;;;;5007142;28;20041;-66
2022/06/14 12:24:05;;;;;;;1.88;1.10;;;26.70;38.80;;;;;;5015061;28;20037;-67
2022/06/14 12:26:46;;;;;;;2.58;1.10;;;26.70;38.40;;;;;;5016908;28;20047;-67
2022/06/14 12:29:33;;;;;;;1.63;1.10;;;26.70;38.30;;;;;;5013127;28;20807;-67
2022/06/14 12:32:18;;;;;;;2.97;1.00;;;26.70;38.30;;;;;;5016455;28;20030;-66
2022/06/14 12:34:48;;;;;;;1.40;0.90;;;26.80;38.00;;;;;;5015414;28;20041;-67
2022/06/14 12:37:45;;;;;;;1.65;1.13;;;26.80;37.40;;;;;;5011829;28;20033;-66
2022/06/14 12:40:29;;;;;;;1.90;1.13;;;26.80;36.30;;;;;;5014038;28;20376;-67
2022/06/14 12:43:12;;;;;;;1.23;0.98;;;26.70;38.10;;;;;;5016155;28;20512;-67
2022/06/14 12:45:41;;;;;;;2.65;1.20;;;26.80;37.70;;;;;;5015858;28;20033;-66
2022/06/14 12:48:18;;;;;;;2.25;1.00;;;26.70;37.60;;;;;;5013301;28;20033;-67
2022/06/14 12:50:49;;;;;;;2.33;1.10;;;26.80;36.70;;;;;;5013756;28;20528;-66
2022/06/14 12:53:19;;;;;;;2.90;1.20;;;26.80;37.50;;;;;;5014347;28;20544;-66
2022/06/14 12:55:53;;;;;;;1.48;1.00;;;26.90;36.40;;;;;;5013278;28;20026;-66
2022/06/14 12:58:32;;;;;;;1.50;1.00;;;26.90;36.50;;;;;;5015557;28;20029;-66
2022/06/14 13:01:33;;;;;;;2.05;1.00;;;26.80;35.40;;;;;;5013380;28;20064;-66
2022/06/14 13:04:16;;;;;;;1.95;0.90;;;26.80;33.60;;;;;;5013922;28;20095;-66
2022/06/14 13:07:06;;;;;;;2.10;0.93;;;26.70;35.40;;;;;;5009701;28;20118;-66
2022/06/14 13:09:47;;;;;;;2.28;1.10;;;26.70;35.90;;;;;;5015762;28;20110;-67
2022/06/14 13:12:31;;;;;;;1.55;1.10;;;26.70;36.70;;;;;;5007985;28;22382;-66
2022/06/14 13:15:55;;;;;;;1.70;0.98;;;26.80;37.00;;;;;;5013223;28;20042;-66
2022/06/14 13:18:39;;;;;;;2.13;1.05;;;26.90;36.80;;;;;;5011379;28;20029;-66
2022/06/14 13:21:20;;;;;;;0.97;0.83;;;26.90;36.20;;;;;;5015825;28;20586;-65
2022/06/14 13:24:15;;;;;;;2.97;1.10;;;27.00;36.60;;;;;;5014785;28;20077;-66
2022/06/14 13:26:59;;;;;;;1.98;0.93;;;27.00;36.80;;;;;;5012522;28;20616;-65
2022/06/14 13:29:43;;;;;;;1.75;0.80;;;27.10;36.00;;;;;;5016049;28;20446;-66
2022/06/14 13:32:21;;;;;;;2.92;1.02;;;27.20;36.40;;;;;;5008834;28;20059;-66
2022/06/14 13:34:56;;;;;;;1.65;1.30;;;27.30;36.50;;;;;;5017005;28;20591;-65
2022/06/14 13:37:35;;;;;;;0.98;0.90;;;27.20;36.40;;;;;;5016968;28;20042;-65
2022/06/14 13:40:10;;;;;;;1.05;0.95;;;27.30;35.90;;;;;;5014685;28;20052;-66
2022/06/14 13:42:41;;;;;;;;;;;27.30;36.50;;;;;;5017412;28;20326;-66
2022/06/14 13:45:19;;;;;;;1.60;1.30;;;27.40;36.90;;;;;;5018620;28;19917;-66
2022/06/14 13:48:06;;;;;;;2.00;1.00;;;27.40;34.70;;;;;;5018822;28;20033;-66
2022/06/14 13:50:39;;;;;;;1.90;1.30;;;27.30;35.10;;;;;;5017364;28;20029;-66
2022/06/14 13:53:15;;;;;;;1.10;1.00;;;27.30;35.10;;;;;;5017835;28;20060;-66
2022/06/14 13:55:45;;;;;;;2.10;1.10;;;27.30;35.90;;;;;;5018252;28;20109;-66
2022/06/14 13:58:17;;;;;;;1.10;1.00;;;27.30;35.80;;;;;;5016770;28;20055;-66
2022/06/14 14:01:07;;;;;;;1.42;0.95;;;27.40;33.80;;;;;;5015297;28;20030;-66
2022/06/14 14:03:38;;;;;;;2.35;1.00;;;27.40;35.00;;;;;;5019809;28;20038;-66
2022/06/14 14:06:38;;;;;;;1.77;0.90;;;27.50;35.30;;;;;;5011816;28;20029;-66